createdAt,value
2023-02-14T00:02:24.271Z,26.60
2023-02-14T00:04:50.817Z,26.92
2023-02-14T00:07:17.287Z,27.58
2023-02-14T00:09:43.730Z,27.42
2023-02-14T00:12:10.209Z,29.10
2023-02-14T00:14:55.023Z,27.23
2023-02-14T00:17:21.469Z,26.33
2023-02-14T00:19:47.888Z,26.35
2023-02-14T00:22:14.332Z,29.55
2023-02-14T00:24:40.715Z,26.38
2023-02-14T00:27:07.142Z,29.55
2023-02-14T00:29:34.456Z,28.67
2023-02-14T00:32:01.446Z,31.23
2023-02-14T00:34:28.203Z,30.55
2023-02-14T00:36:54.723Z,25.63
2023-02-14T00:39:21.165Z,31.05
2023-02-14T00:41:47.659Z,28.77
2023-02-14T00:44:14.407Z,30.58
2023-02-14T00:46:41.754Z,27.73
2023-02-14T00:49:08.468Z,27.90
2023-02-14T00:51:34.982Z,25.70
2023-02-14T00:54:01.941Z,27.73
2023-02-14T00:56:28.356Z,27.48
2023-02-14T00:58:55.001Z,28.40
2023-02-14T01:01:21.791Z,28.90
2023-02-14T01:03:48.573Z,30.10
2023-02-14T01:06:15.317Z,28.52
2023-02-14T01:08:41.914Z,25.75
2023-02-14T01:11:16.935Z,26.90
2023-02-14T01:13:44.191Z,25.67
2023-02-14T01:16:14.034Z,25.48
2023-02-14T01:18:41.192Z,28.05
2023-02-14T01:21:21.587Z,26.05
2023-02-14T01:23:50.031Z,27.13
2023-02-14T01:26:17.448Z,26.45
2023-02-14T01:28:44.764Z,26.25
2023-02-14T01:31:19.892Z,26.63
2023-02-14T01:33:48.075Z,25.33
2023-02-14T01:36:16.422Z,29.42
2023-02-14T01:38:43.082Z,26.10
2023-02-14T01:41:09.730Z,27.58
2023-02-14T01:44:02.288Z,26.70
2023-02-14T01:46:31.376Z,21.17
2023-02-14T01:49:05.497Z,28.60
2023-02-14T01:51:34.446Z,29.25
2023-02-14T01:54:02.051Z,27.63
2023-02-14T01:56:37.538Z,28.77
2023-02-14T01:59:09.723Z,29.23
2023-02-14T02:01:36.375Z,27.77
2023-02-14T02:04:10.082Z,27.65
2023-02-14T02:06:43.969Z,26.67
2023-02-14T02:09:16.304Z,30.70
2023-02-14T02:11:43.119Z,28.55
2023-02-14T02:14:14.889Z,27.70
2023-02-14T02:16:41.236Z,28.45
2023-02-14T02:19:13.438Z,30.95
2023-02-14T02:21:58.175Z,26.65
2023-02-14T02:24:30.405Z,27.15
2023-02-14T02:27:18.667Z,25.17
2023-02-14T02:29:58.882Z,26.90
2023-02-14T02:32:27.919Z,25.67
2023-02-14T02:35:05.599Z,25.67
2023-02-14T02:38:09.782Z,25.83
2023-02-14T02:40:42.744Z,24.73
2023-02-14T02:43:29.268Z,24.25
2023-02-14T02:46:27.368Z,26.17
2023-02-14T02:48:59.650Z,24.20
2023-02-14T02:52:10.011Z,25.08
2023-02-14T02:54:44.689Z,24.83
2023-02-14T02:57:23.630Z,25.17
2023-02-14T02:59:52.759Z,23.35
2023-02-14T03:02:31.696Z,25.23
2023-02-14T03:05:01.834Z,25.33
2023-02-14T03:07:40.586Z,23.92
2023-02-14T03:10:12.798Z,25.10
2023-02-14T03:12:51.318Z,24.88
2023-02-14T03:15:47.753Z,25.80
2023-02-14T03:18:48.072Z,21.30
2023-02-14T03:21:42.112Z,23.75
2023-02-14T03:24:24.828Z,25.63
2023-02-14T03:27:14.994Z,24.67
2023-02-14T03:30:02.567Z,24.75
2023-02-14T03:33:04.418Z,24.45
2023-02-14T03:35:50.676Z,25.08
2023-02-14T03:38:30.993Z,25.85
2023-02-14T03:41:02.720Z,24.00
2023-02-14T03:43:37.185Z,25.88
2023-02-14T03:46:10.560Z,24.80
2023-02-14T03:48:40.073Z,19.73
2023-02-14T03:51:10.808Z,22.75
2023-02-14T03:53:43.699Z,20.00
2023-02-14T03:56:26.338Z,22.08
2023-02-14T03:58:58.311Z,22.77
2023-02-14T04:01:31.012Z,21.17
2023-02-14T04:03:59.545Z,15.43
2023-02-14T04:06:26.292Z,20.27
2023-02-14T04:08:52.688Z,20.85
2023-02-14T04:11:19.246Z,20.25
2023-02-14T04:13:45.756Z,20.55
2023-02-14T04:16:12.191Z,22.30
2023-02-14T04:18:57.359Z,16.67
2023-02-14T04:21:23.812Z,13.55
2023-02-14T04:23:50.213Z,18.10
2023-02-14T04:26:16.628Z,20.08
2023-02-14T04:28:43.034Z,22.35
2023-02-14T04:31:11.400Z,19.50
2023-02-14T04:33:39.293Z,18.02
2023-02-14T04:36:06.072Z,17.15
2023-02-14T04:38:32.921Z,21.90
2023-02-14T04:40:59.681Z,20.65
2023-02-14T04:43:26.235Z,18.38
2023-02-14T04:45:52.679Z,15.98
2023-02-14T04:48:19.117Z,18.80
2023-02-14T04:50:45.511Z,14.75
2023-02-14T04:53:11.944Z,12.60
2023-02-14T04:55:38.334Z,19.60
2023-02-14T04:58:04.939Z,12.82
2023-02-14T05:00:31.407Z,20.92
2023-02-14T05:02:57.881Z,14.35
2023-02-14T05:05:24.304Z,15.43
2023-02-14T05:07:50.696Z,18.67
2023-02-14T05:10:17.165Z,20.63
2023-02-14T05:12:43.629Z,19.90
2023-02-14T05:15:10.108Z,24.42
2023-02-14T05:17:37.188Z,16.17
2023-02-14T05:20:05.942Z,13.50
2023-02-14T05:22:32.345Z,16.20
2023-02-14T05:24:58.735Z,19.13
2023-02-14T05:27:25.128Z,19.67
2023-02-14T05:29:51.540Z,20.25
2023-02-14T05:32:17.987Z,20.00
2023-02-14T05:34:44.423Z,22.30
2023-02-14T05:37:10.903Z,13.57
2023-02-14T05:39:37.343Z,18.63
2023-02-14T05:42:03.783Z,19.27
2023-02-14T05:44:30.185Z,21.98
2023-02-14T05:46:56.658Z,22.98
2023-02-14T05:49:23.114Z,25.33
2023-02-14T05:51:49.816Z,22.52
2023-02-14T05:54:16.263Z,20.63
2023-02-14T05:56:42.688Z,19.15
2023-02-14T05:59:09.102Z,17.38
2023-02-14T06:01:35.501Z,14.10
2023-02-14T06:04:01.935Z,17.88
2023-02-14T06:06:28.369Z,17.88
2023-02-14T06:08:54.708Z,16.13
2023-02-14T06:11:21.091Z,14.38
2023-02-14T06:13:47.568Z,13.18
2023-02-14T06:16:14.031Z,16.67
2023-02-14T06:18:40.458Z,11.45
2023-02-14T06:21:06.855Z,12.85
2023-02-14T06:23:33.351Z,17.23
2023-02-14T06:25:59.735Z,12.60
2023-02-14T06:28:26.165Z,13.60
2023-02-14T06:30:52.767Z,14.52
2023-02-14T06:33:19.330Z,10.48
2023-02-14T06:35:45.698Z,12.50
2023-02-14T06:38:12.055Z,14.27
2023-02-14T06:40:38.433Z,12.95
2023-02-14T06:43:04.883Z,13.32
2023-02-14T06:45:31.302Z,11.90
2023-02-14T06:47:57.764Z,13.65
2023-02-14T06:50:24.280Z,12.45
2023-02-14T06:52:51.400Z,11.63
2023-02-14T06:55:18.255Z,15.52
2023-02-14T06:57:44.698Z,19.50
2023-02-14T07:00:11.794Z,21.67
2023-02-14T07:02:38.316Z,16.42
2023-02-14T07:05:05.110Z,18.42
2023-02-14T07:07:31.507Z,15.35
2023-02-14T07:09:57.988Z,16.33
2023-02-14T07:12:24.372Z,14.57
2023-02-14T07:14:50.810Z,16.55
2023-02-14T07:17:17.212Z,17.77
2023-02-14T07:19:43.592Z,18.90
2023-02-14T07:22:10.049Z,20.58
2023-02-14T07:24:36.414Z,18.80
2023-02-14T07:27:02.837Z,15.50
2023-02-14T07:29:29.234Z,14.07
2023-02-14T07:31:55.773Z,17.20
2023-02-14T07:34:22.513Z,18.25
2023-02-14T07:36:48.917Z,16.40
2023-02-14T07:39:15.360Z,17.33
2023-02-14T07:41:41.810Z,19.83
2023-02-14T07:44:08.285Z,19.67
2023-02-14T07:46:34.686Z,19.48
2023-02-14T07:49:01.085Z,18.70
2023-02-14T07:51:27.518Z,19.42
2023-02-14T07:53:54.106Z,17.67
2023-02-14T07:56:20.532Z,19.20
2023-02-14T07:58:47.088Z,20.15
2023-02-14T08:01:13.659Z,15.60
2023-02-14T08:03:40.123Z,20.67
2023-02-14T08:06:06.743Z,20.88
2023-02-14T08:08:33.297Z,22.70
2023-02-14T08:11:00.188Z,22.00
2023-02-14T08:13:27.105Z,20.17
2023-02-14T08:16:05.640Z,20.13
2023-02-14T08:18:35.144Z,20.55
2023-02-14T08:21:02.332Z,20.45
2023-02-14T08:23:29.276Z,22.90
2023-02-14T08:25:55.880Z,24.50
2023-02-14T08:28:22.471Z,22.40
2023-02-14T08:30:49.243Z,21.50
2023-02-14T08:33:15.697Z,24.58
2023-02-14T08:35:42.123Z,22.10
2023-02-14T08:38:08.648Z,21.88
2023-02-14T08:40:37.067Z,21.77
2023-02-14T08:43:04.999Z,17.52
2023-02-14T08:45:31.515Z,19.33
2023-02-14T08:48:07.228Z,21.50
2023-02-14T08:50:35.011Z,20.38
2023-02-14T08:53:01.800Z,19.52
2023-02-14T08:55:28.246Z,21.02
2023-02-14T08:57:57.064Z,21.10
2023-02-14T09:00:23.770Z,19.30
2023-02-14T09:02:51.757Z,21.13
2023-02-14T09:05:19.494Z,19.33
2023-02-14T09:07:45.985Z,22.58
2023-02-14T09:10:12.944Z,22.67
2023-02-14T09:12:40.845Z,21.88
2023-02-14T09:15:09.377Z,23.70
2023-02-14T09:17:36.586Z,21.25
2023-02-14T09:20:04.365Z,22.25
2023-02-14T09:22:30.855Z,21.48
2023-02-14T09:24:57.318Z,19.60
2023-02-14T09:27:23.782Z,20.33
2023-02-14T09:29:50.287Z,20.60
2023-02-14T09:32:16.871Z,23.40
2023-02-14T09:34:43.772Z,19.23
2023-02-14T09:37:30.478Z,22.33
2023-02-14T09:39:56.967Z,24.23
2023-02-14T09:42:50.734Z,22.95
2023-02-14T09:45:21.310Z,19.95
2023-02-14T09:48:06.660Z,23.65
2023-02-14T09:50:40.339Z,23.27
2023-02-14T09:53:15.379Z,23.67
2023-02-14T09:56:11.935Z,21.88
2023-02-14T09:59:04.004Z,18.50
2023-02-14T10:01:41.050Z,22.20
2023-02-14T10:04:07.549Z,22.00
2023-02-14T10:06:58.619Z,21.83
2023-02-14T10:09:50.937Z,21.92
2023-02-14T10:12:26.481Z,23.50
2023-02-14T10:14:57.480Z,23.75
2023-02-14T10:17:29.088Z,25.35
2023-02-14T10:20:01.753Z,22.50
2023-02-14T10:22:44.886Z,25.55
2023-02-14T10:25:28.992Z,26.73
2023-02-14T10:27:58.093Z,23.50
2023-02-14T10:30:25.896Z,25.25
2023-02-14T10:33:17.673Z,23.17
2023-02-14T10:35:48.668Z,20.80
2023-02-14T10:38:25.404Z,20.95
2023-02-14T10:41:09.998Z,21.23
2023-02-14T10:44:01.075Z,21.63
2023-02-14T10:46:42.937Z,23.38
2023-02-14T10:49:34.100Z,22.35
2023-02-14T10:52:04.255Z,22.13
2023-02-14T10:54:39.646Z,22.65
2023-02-14T10:57:17.419Z,20.40
2023-02-14T10:59:59.603Z,19.38
2023-02-14T11:02:33.468Z,21.80
2023-02-14T11:05:02.259Z,22.63
2023-02-14T11:07:29.662Z,18.98
2023-02-14T11:09:57.236Z,20.92
2023-02-14T11:12:40.827Z,22.05
2023-02-14T11:15:24.659Z,18.95
2023-02-14T11:18:09.213Z,21.47
2023-02-14T11:20:35.657Z,19.63
2023-02-14T11:23:02.090Z,19.13
2023-02-14T11:25:31.285Z,20.20
2023-02-14T11:28:07.916Z,23.30
2023-02-14T11:30:40.842Z,21.17
2023-02-14T11:33:34.217Z,22.88
2023-02-14T11:36:03.961Z,21.52
2023-02-14T11:38:38.193Z,20.52
2023-02-14T11:41:07.391Z,19.65
2023-02-14T11:43:39.299Z,18.92
2023-02-14T11:46:07.635Z,18.70
2023-02-14T11:48:38.866Z,22.02
2023-02-14T11:51:15.755Z,21.05
2023-02-14T11:53:52.330Z,18.98
2023-02-14T11:56:20.873Z,21.70
2023-02-14T11:58:59.502Z,21.95
2023-02-14T12:01:31.688Z,21.00
2023-02-14T12:04:23.508Z,20.23
2023-02-14T12:06:50.220Z,18.23
2023-02-14T12:09:22.692Z,20.88
2023-02-14T12:12:04.445Z,20.52
2023-02-14T12:14:35.632Z,19.95
2023-02-14T12:17:18.832Z,19.02
2023-02-14T12:20:23.622Z,15.60
2023-02-14T12:22:58.134Z,17.42
2023-02-14T12:25:27.333Z,18.67
2023-02-14T12:28:01.469Z,14.27
2023-02-14T12:30:32.258Z,14.02
2023-02-14T12:33:00.155Z,15.32
2023-02-14T12:36:01.986Z,15.25
2023-02-14T12:38:45.529Z,14.85
2023-02-14T12:41:17.806Z,17.50
2023-02-14T12:43:55.322Z,15.45
2023-02-14T12:46:51.768Z,15.88
2023-02-14T12:49:55.200Z,13.05
2023-02-14T12:52:24.489Z,14.27
2023-02-14T12:55:15.036Z,12.35
2023-02-14T12:58:05.634Z,14.48
2023-02-14T13:00:38.036Z,15.18
2023-02-14T13:03:33.622Z,13.75
2023-02-14T13:06:24.410Z,16.40
2023-02-14T13:09:18.050Z,12.65
2023-02-14T13:11:50.445Z,13.93
2023-02-14T13:14:25.797Z,11.70
2023-02-14T13:16:58.014Z,14.18
2023-02-14T13:19:50.451Z,14.13
2023-02-14T13:22:20.408Z,14.50
2023-02-14T13:24:50.669Z,13.35
2023-02-14T13:27:23.393Z,11.15
2023-02-14T13:30:16.295Z,13.82
2023-02-14T13:32:46.834Z,13.60
2023-02-14T13:35:17.068Z,12.77
2023-02-14T13:38:00.298Z,11.65
2023-02-14T13:40:28.480Z,12.52
2023-02-14T13:43:00.143Z,11.45
2023-02-14T13:45:29.626Z,13.43
2023-02-14T13:48:17.956Z,12.95
2023-02-14T13:50:50.142Z,13.48
2023-02-14T13:53:40.152Z,13.75
2023-02-14T13:56:12.446Z,13.07
2023-02-14T13:58:53.912Z,14.57
2023-02-14T14:01:31.548Z,15.68
2023-02-14T14:04:01.359Z,14.77
2023-02-14T14:06:28.277Z,15.70
2023-02-14T14:08:56.967Z,17.27
2023-02-14T14:11:23.300Z,15.73
2023-02-14T14:13:56.324Z,18.45
2023-02-14T14:16:28.860Z,15.77
2023-02-14T14:18:56.867Z,14.68
2023-02-14T14:21:32.421Z,14.68
2023-02-14T14:24:23.661Z,16.20
2023-02-14T14:27:16.810Z,13.45
2023-02-14T14:29:54.029Z,16.35
2023-02-14T14:32:41.472Z,18.35
2023-02-14T14:35:10.949Z,15.07
2023-02-14T14:37:56.587Z,15.15
2023-02-14T14:40:29.582Z,15.52
2023-02-14T14:43:09.867Z,11.95
2023-02-14T14:45:36.387Z,19.42
2023-02-14T14:48:09.461Z,19.00
2023-02-14T14:50:36.676Z,16.15
2023-02-14T14:53:29.262Z,18.08
2023-02-14T14:55:56.455Z,18.50
2023-02-14T14:58:31.971Z,15.52
2023-02-14T15:00:58.412Z,15.40
2023-02-14T15:03:27.210Z,21.88
2023-02-14T15:06:16.224Z,19.63
2023-02-14T15:08:43.223Z,17.45
2023-02-14T15:11:39.772Z,17.45
2023-02-14T15:14:10.216Z,19.27
2023-02-14T15:16:49.520Z,15.50
2023-02-14T15:19:33.278Z,17.52
2023-02-14T15:22:17.403Z,19.17
2023-02-14T15:24:44.462Z,21.98
2023-02-14T15:27:20.599Z,22.48
2023-02-14T15:29:57.920Z,19.80
2023-02-14T15:32:27.689Z,22.92
2023-02-14T15:34:54.573Z,25.85
2023-02-14T15:37:22.558Z,20.35
2023-02-14T15:39:53.023Z,22.73
2023-02-14T15:42:22.569Z,26.17
2023-02-14T15:44:49.000Z,22.83
2023-02-14T15:47:16.259Z,25.60
2023-02-14T15:49:46.452Z,23.15
2023-02-14T15:52:14.888Z,25.45
2023-02-14T15:54:47.347Z,22.75
2023-02-14T15:57:26.183Z,25.40
2023-02-14T15:59:53.598Z,23.35
2023-02-14T16:02:38.873Z,24.58
2023-02-14T16:05:21.223Z,24.10
2023-02-14T16:08:07.962Z,23.88
2023-02-14T16:10:40.181Z,23.38
2023-02-14T16:13:19.251Z,21.40
2023-02-14T16:16:03.977Z,22.65
2023-02-14T16:18:36.713Z,21.42
2023-02-14T16:21:26.751Z,22.88
2023-02-14T16:24:11.390Z,22.73
2023-02-14T16:26:40.098Z,20.50
2023-02-14T16:29:16.140Z,20.75
2023-02-14T16:32:06.198Z,20.08
2023-02-14T16:34:32.092Z,20.17
2023-02-14T16:36:58.536Z,23.23
2023-02-14T16:39:26.208Z,20.73
2023-02-14T16:41:56.121Z,22.77
2023-02-14T16:44:22.637Z,21.23
2023-02-14T16:46:49.119Z,22.52
2023-02-14T16:49:15.513Z,20.65
2023-02-14T16:51:45.242Z,19.83
2023-02-14T16:54:17.767Z,20.63
2023-02-14T16:56:52.672Z,22.17
2023-02-14T16:59:19.327Z,21.65
2023-02-14T17:01:45.797Z,20.33
2023-02-14T17:04:12.546Z,20.88
2023-02-14T17:06:41.978Z,22.15
2023-02-14T17:09:12.392Z,21.23
2023-02-14T17:11:43.676Z,21.25
2023-02-14T17:14:14.506Z,20.98
2023-02-14T17:16:41.902Z,21.45
2023-02-14T17:19:08.612Z,21.45
2023-02-14T17:21:35.507Z,21.88
2023-02-14T17:24:03.457Z,19.95
2023-02-14T17:26:30.070Z,22.60
2023-02-14T17:28:56.488Z,21.00
2023-02-14T17:31:22.939Z,21.77
2023-02-14T17:33:49.392Z,22.63
2023-02-14T17:36:16.276Z,22.60
2023-02-14T17:38:45.631Z,24.55
2023-02-14T17:41:14.948Z,22.77
2023-02-14T17:43:41.357Z,23.65
2023-02-14T17:46:08.025Z,25.23
2023-02-14T17:48:34.738Z,23.73
2023-02-14T17:51:06.423Z,22.98
2023-02-14T17:53:34.059Z,21.92
2023-02-14T17:56:06.782Z,24.27
2023-02-14T17:58:33.217Z,25.30
2023-02-14T18:01:11.428Z,23.67
2023-02-14T18:03:38.948Z,24.33
2023-02-14T18:06:06.730Z,23.52
2023-02-14T18:08:39.900Z,24.42
2023-02-14T18:11:08.085Z,23.67
2023-02-14T18:13:35.322Z,24.85
2023-02-14T18:16:06.965Z,24.50
2023-02-14T18:18:33.645Z,24.88
2023-02-14T18:21:02.325Z,37.17
2023-02-14T18:23:30.761Z,34.30
2023-02-14T18:26:01.028Z,28.65
2023-02-14T18:28:28.250Z,31.88
2023-02-14T18:30:54.705Z,29.50
2023-02-14T18:33:21.385Z,28.83
2023-02-14T18:35:47.807Z,29.08
2023-02-14T18:38:14.295Z,27.08
2023-02-14T18:40:41.404Z,27.63
2023-02-14T18:43:07.820Z,27.55
2023-02-14T18:45:38.719Z,26.80
2023-02-14T18:48:05.948Z,25.50
2023-02-14T18:50:33.618Z,27.83
2023-02-14T18:53:00.198Z,30.60
2023-02-14T18:55:27.370Z,27.67
2023-02-14T18:57:53.801Z,26.27
2023-02-14T19:00:21.769Z,26.50
2023-02-14T19:02:48.240Z,26.33
2023-02-14T19:05:14.642Z,23.85
2023-02-14T19:07:41.144Z,24.85
2023-02-14T19:10:08.252Z,23.75
2023-02-14T19:12:35.098Z,24.73
2023-02-14T19:15:03.204Z,24.27
2023-02-14T19:17:29.664Z,23.95
2023-02-14T19:19:56.469Z,23.52
2023-02-14T19:22:22.931Z,24.52
2023-02-14T19:24:52.990Z,24.10
2023-02-14T19:27:19.650Z,25.33
2023-02-14T19:29:46.035Z,23.88
2023-02-14T19:32:12.465Z,24.27
2023-02-14T19:34:39.073Z,24.35
2023-02-14T19:37:06.347Z,22.58
2023-02-14T19:39:32.945Z,23.83
2023-02-14T19:42:00.088Z,24.65
2023-02-14T19:44:26.615Z,23.20
2023-02-14T19:46:54.345Z,25.13
2023-02-14T19:49:21.083Z,24.05
2023-02-14T19:51:48.763Z,25.08
2023-02-14T19:54:15.729Z,24.02
2023-02-14T19:56:44.573Z,27.02
2023-02-14T19:59:14.282Z,27.67
2023-02-14T20:01:54.467Z,25.33
2023-02-14T20:04:30.791Z,25.25
2023-02-14T20:06:57.853Z,23.08
2023-02-14T20:09:25.460Z,24.20
2023-02-14T20:11:54.686Z,24.83
2023-02-14T20:14:49.864Z,25.95
2023-02-14T20:17:17.929Z,24.52
2023-02-14T20:19:44.281Z,27.88
2023-02-14T20:22:10.732Z,27.63
2023-02-14T20:24:37.160Z,28.13
2023-02-14T20:27:03.683Z,29.30
2023-02-14T20:29:30.194Z,29.15
2023-02-14T20:31:59.770Z,30.92
2023-02-14T20:34:26.923Z,26.67
2023-02-14T20:36:55.207Z,27.02
2023-02-14T20:39:23.620Z,29.95
2023-02-14T20:41:50.261Z,27.98
2023-02-14T20:44:21.209Z,28.42
2023-02-14T20:46:53.623Z,24.17
2023-02-14T20:49:25.036Z,28.73
2023-02-14T20:51:52.125Z,26.83
2023-02-14T20:54:20.492Z,30.58
2023-02-14T20:56:47.400Z,29.48
2023-02-14T20:59:14.595Z,25.77
2023-02-14T21:01:41.178Z,31.83
2023-02-14T21:04:07.642Z,27.60
2023-02-14T21:06:35.493Z,25.90
2023-02-14T21:09:02.005Z,26.45
2023-02-14T21:11:29.085Z,23.90
2023-02-14T21:13:59.699Z,23.17
2023-02-14T21:16:28.227Z,23.05
2023-02-14T21:18:58.931Z,25.08
2023-02-14T21:21:36.028Z,22.45
2023-02-14T21:24:11.833Z,21.70
2023-02-14T21:26:39.118Z,22.15
2023-02-14T21:29:06.401Z,24.77
2023-02-14T21:31:33.722Z,26.10
2023-02-14T21:34:01.913Z,21.77
2023-02-14T21:36:30.905Z,28.08
2023-02-14T21:38:59.120Z,23.77
2023-02-14T21:41:30.201Z,23.83
2023-02-14T21:43:58.335Z,24.23
2023-02-14T21:46:29.244Z,23.90
2023-02-14T21:49:15.649Z,23.67
2023-02-14T21:51:42.700Z,26.77
2023-02-14T21:54:09.961Z,30.85
2023-02-14T21:56:37.307Z,22.75
2023-02-14T21:59:03.780Z,27.80
2023-02-14T22:01:35.294Z,24.75
2023-02-14T22:04:04.511Z,16.83
2023-02-14T22:06:30.924Z,21.50
2023-02-14T22:08:58.900Z,23.77
2023-02-14T22:11:27.387Z,23.23
2023-02-14T22:13:53.996Z,24.42
2023-02-14T22:16:22.080Z,18.70
2023-02-14T22:18:49.099Z,21.13
2023-02-14T22:21:18.148Z,22.58
2023-02-14T22:23:45.029Z,19.63
2023-02-14T22:26:33.790Z,20.55
2023-02-14T22:29:02.592Z,23.00
2023-02-14T22:31:33.674Z,19.65
2023-02-14T22:34:00.140Z,20.80
2023-02-14T22:36:26.655Z,22.35
2023-02-14T22:38:53.065Z,22.58
2023-02-14T22:41:22.753Z,22.48
2023-02-14T22:43:49.317Z,17.67
2023-02-14T22:46:24.512Z,21.90
2023-02-14T22:48:52.509Z,21.90
2023-02-14T22:51:25.270Z,23.55
2023-02-14T22:53:53.792Z,20.70
2023-02-14T22:56:23.339Z,22.92
2023-02-14T22:58:57.516Z,19.92
2023-02-14T23:01:24.317Z,19.15
2023-02-14T23:03:59.060Z,19.65
2023-02-14T23:06:27.544Z,21.08
2023-02-14T23:08:55.137Z,16.30
2023-02-14T23:11:30.612Z,20.83
2023-02-14T23:14:16.212Z,19.15
2023-02-14T23:17:01.651Z,19.88
2023-02-14T23:19:48.954Z,19.45
2023-02-14T23:22:19.442Z,18.55
2023-02-14T23:24:47.258Z,24.92
2023-02-14T23:27:14.295Z,20.65
2023-02-14T23:29:40.715Z,21.00
2023-02-14T23:32:07.791Z,21.98
2023-02-14T23:34:38.462Z,22.52
2023-02-14T23:37:05.661Z,20.83
2023-02-14T23:39:35.603Z,21.52
2023-02-14T23:42:07.024Z,21.67
2023-02-14T23:44:33.811Z,19.77
2023-02-14T23:47:04.151Z,19.67
2023-02-14T23:49:32.567Z,21.70
2023-02-14T23:51:59.216Z,21.10
2023-02-14T23:54:26.217Z,21.63
2023-02-14T23:56:53.940Z,19.67
2023-02-14T23:59:21.965Z,19.85
